Riceton, Canada
Current Conditions -  °F | °C
As of 10:00 AM on Friday 24 Oct 2014 (Local Time) from CYQR Reporting Station
Scattered Clouds Scattered Clouds  
Wind Chill: 10°   Ceiling: Unl
Heat Index: 10°   Visibility: 15mi
Dew Point:   Wind: 20mph
Humidity: 62%   Direction: 290°WNW
Pressure: 29.76"   Gusts: 26mph
Location:  50.1°N, 104.32°W
Report Text: CYQR 241600Z 29017G23KT 15SM SCT260 10/03 A2976 RMK CI3 SLP093 DENSITY ALT 1900FT
Loading
Personal Weather Stations






























Interactive Weather Map
Tropical Storm Tracking
New forecast layout! Learn more

10-Day Weather Forecast

Advertisements
Track Severe Weather on mobile